Time;durP1;ratioP1;P1;durP2;ratioP2;P2;SDS_P1;SDS_P2;PMS_P1;PMS_P2;Temp;Humidity;BMP_temperature;BMP_pressure;BME280_temperature;BME280_humidity;BME280_pressure;Samples;Min_cycle;Max_cycle;Signal;HPM_P1;HPM_P2
2023/04/30 00:00:49;;;;;;;13.82;7.10;;;10.90;99.90;;;;;;4985276;28;20031;-73
2023/04/30 00:03:14;;;;;;;14.20;7.20;;;10.90;99.90;;;;;;4991255;28;20471;-75
2023/04/30 00:05:40;;;;;;;15.82;6.68;;;10.90;99.90;;;;;;4979612;28;20539;-75
2023/04/30 00:08:05;;;;;;;14.85;7.35;;;10.90;99.90;;;;;;4984842;28;20082;-75
2023/04/30 00:10:31;;;;;;;14.20;7.75;;;10.90;99.90;;;;;;4987191;28;20035;-74
2023/04/30 00:12:57;;;;;;;17.95;7.28;;;10.90;99.90;;;;;;4987675;28;20415;-74
2023/04/30 00:15:22;;;;;;;14.48;6.80;;;10.90;99.90;;;;;;4982232;28;20041;-73
2023/04/30 00:17:48;;;;;;;15.07;7.88;;;10.90;99.90;;;;;;4988866;28;20034;-73
2023/04/30 00:20:14;;;;;;;15.73;7.38;;;10.80;99.90;;;;;;4973562;28;20679;-74
2023/04/30 00:22:40;;;;;;;17.30;7.78;;;10.90;99.90;;;;;;4991009;28;20085;-74
2023/04/30 00:25:06;;;;;;;15.93;8.25;;;10.90;99.90;;;;;;4974595;28;20101;-77
2023/04/30 00:27:31;;;;;;;16.25;7.97;;;10.90;99.90;;;;;;4991066;28;20034;-74
2023/04/30 00:29:57;;;;;;;15.77;7.90;;;10.90;99.90;;;;;;4992195;28;20026;-73
2023/04/30 00:32:23;;;;;;;16.88;8.15;;;10.90;99.90;;;;;;4984211;28;20109;-73
2023/04/30 00:34:49;;;;;;;17.42;8.75;;;10.90;99.90;;;;;;4982298;28;20114;-73
2023/04/30 00:37:14;;;;;;;15.18;7.95;;;10.90;99.90;;;;;;4990796;28;20034;-74
2023/04/30 00:39:40;;;;;;;17.25;8.02;;;10.80;99.90;;;;;;4992004;28;20038;-75
2023/04/30 00:42:07;;;;;;;15.13;7.95;;;10.80;99.90;;;;;;4991480;28;20543;-76
2023/04/30 00:44:32;;;;;;;17.02;8.40;;;10.80;99.90;;;;;;4990627;28;20030;-75
2023/04/30 00:46:58;;;;;;;14.68;7.43;;;10.80;99.90;;;;;;4991057;28;20451;-73
2023/04/30 00:49:24;;;;;;;15.45;8.32;;;10.80;99.90;;;;;;4990181;28;20738;-73
2023/04/30 00:51:51;;;;;;;13.05;7.68;;;10.80;99.90;;;;;;4974014;28;20034;-74
2023/04/30 00:54:19;;;;;;;15.27;7.78;;;10.80;99.90;;;;;;4990759;28;20142;-74
2023/04/30 00:56:45;;;;;;;16.25;8.93;;;10.80;99.90;;;;;;4990120;28;20088;-76
2023/04/30 00:59:12;;;;;;;14.23;7.80;;;10.80;99.90;;;;;;4989955;28;20096;-77
2023/04/30 01:01:38;;;;;;;15.88;8.13;;;10.80;99.90;;;;;;4990079;28;20037;-74
2023/04/30 01:04:04;;;;;;;16.30;8.15;;;10.70;99.90;;;;;;4973704;28;20038;-73
2023/04/30 01:06:30;;;;;;;17.42;8.75;;;10.80;99.90;;;;;;4990203;28;20022;-74
2023/04/30 01:08:57;;;;;;;14.18;7.57;;;10.80;99.90;;;;;;4989685;28;20065;-73
2023/04/30 01:11:37;;;;;;;15.85;8.32;;;10.70;99.90;;;;;;4991018;28;20026;-73
2023/04/30 01:14:40;;;;;;;16.10;8.05;;;10.70;99.90;;;;;;4995182;28;20030;-74
2023/04/30 01:17:35;;;;;;;17.55;8.32;;;10.80;99.90;;;;;;4990346;28;20120;-73
2023/04/30 01:20:02;;;;;;;17.30;8.35;;;10.70;99.90;;;;;;4987572;28;20077;-74
2023/04/30 01:22:27;;;;;;;14.85;8.80;;;10.70;99.90;;;;;;4988811;28;20133;-74
2023/04/30 01:25:05;;;;;;;18.88;9.20;;;10.70;99.90;;;;;;4983360;28;20117;-74
2023/04/30 01:27:30;;;;;;;16.35;8.27;;;10.70;99.90;;;;;;4990632;28;20018;-74
2023/04/30 01:29:58;;;;;;;18.77;8.93;;;10.70;99.90;;;;;;5005876;28;20084;-74
2023/04/30 01:32:23;;;;;;;16.92;8.85;;;10.60;99.90;;;;;;4990082;28;20107;-73
2023/04/30 01:34:49;;;;;;;18.90;9.82;;;10.70;99.90;;;;;;4989798;28;20495;-75
2023/04/30 01:37:18;;;;;;;19.15;9.32;;;10.70;99.90;;;;;;4988531;28;20080;-78
2023/04/30 01:39:56;;;;;;;16.98;8.93;;;10.70;99.90;;;;;;4972566;28;20751;-75
2023/04/30 01:42:29;;;;;;;22.92;9.55;;;10.60;99.90;;;;;;4971154;28;20097;-76
2023/04/30 01:45:32;;;;;;;18.88;9.23;;;10.60;99.90;;;;;;4989861;28;20034;-73
2023/04/30 01:48:36;;;;;;;22.33;10.35;;;10.60;99.90;;;;;;4990720;28;20031;-73
2023/04/30 01:51:12;;;;;;;22.58;10.27;;;10.60;99.90;;;;;;4932164;29;20170;-76
2023/04/30 01:53:41;;;;;;;16.65;9.40;;;10.60;99.90;;;;;;4946790;29;20071;-75
2023/04/30 01:56:31;;;;;;;26.15;10.43;;;10.50;99.90;;;;;;4971965;28;20038;-75
2023/04/30 01:58:58;;;;;;;18.92;9.70;;;10.40;99.90;;;;;;4989798;28;20061;-75
2023/04/30 02:01:31;;;;;;;22.35;10.43;;;10.40;99.90;;;;;;4989776;28;20122;-75
2023/04/30 02:03:57;;;;;;;18.00;9.55;;;10.50;99.90;;;;;;4989250;28;20037;-74
2023/04/30 02:06:28;;;;;;;21.00;10.50;;;10.40;99.90;;;;;;4989989;28;20054;-75
2023/04/30 02:08:55;;;;;;;20.98;9.27;;;10.40;99.90;;;;;;4988732;28;20128;-75
2023/04/30 02:11:23;;;;;;;19.88;9.88;;;10.50;99.90;;;;;;4984429;28;20033;-75
2023/04/30 02:13:49;;;;;;;19.83;9.75;;;10.40;99.90;;;;;;4985462;28;20038;-74
2023/04/30 02:16:15;;;;;;;20.70;9.40;;;10.50;99.90;;;;;;4987718;28;20035;-76
2023/04/30 02:18:41;;;;;;;20.00;10.15;;;10.40;99.90;;;;;;4988181;28;20031;-74
2023/04/30 02:21:07;;;;;;;21.73;10.05;;;10.40;99.90;;;;;;4979190;28;20030;-74
2023/04/30 02:23:32;;;;;;;22.92;10.48;;;10.40;99.90;;;;;;4990067;28;20037;-75
2023/04/30 02:25:58;;;;;;;20.52;10.63;;;10.30;99.90;;;;;;4988660;28;20038;-74
2023/04/30 02:28:23;;;;;;;24.05;10.82;;;10.30;99.90;;;;;;4989296;28;20100;-74
2023/04/30 02:30:49;;;;;;;21.83;10.93;;;10.30;99.90;;;;;;4986698;28;20399;-75
2023/04/30 02:33:15;;;;;;;22.30;11.15;;;10.30;99.90;;;;;;4988449;28;20144;-77
2023/04/30 02:35:41;;;;;;;22.65;10.43;;;10.20;99.90;;;;;;4989445;28;20035;-75
2023/04/30 02:38:06;;;;;;;24.08;10.75;;;10.20;99.90;;;;;;4988909;28;20041;-75
2023/04/30 02:40:32;;;;;;;23.65;11.25;;;10.10;99.90;;;;;;4986535;28;20088;-75
2023/04/30 02:43:00;;;;;;;20.60;10.43;;;10.00;99.90;;;;;;4989063;28;20065;-74
2023/04/30 02:45:25;;;;;;;20.90;10.65;;;10.00;99.90;;;;;;4988983;28;20027;-74
2023/04/30 02:47:51;;;;;;;26.55;11.30;;;10.00;99.90;;;;;;4989002;28;20085;-75
2023/04/30 02:50:17;;;;;;;19.52;10.27;;;10.00;99.90;;;;;;4987656;28;20698;-77
2023/04/30 02:52:45;;;;;;;25.50;11.38;;;9.90;99.90;;;;;;4990198;28;20074;-75
2023/04/30 02:55:11;;;;;;;20.05;10.07;;;9.90;99.90;;;;;;4989642;28;20054;-76
2023/04/30 02:57:37;;;;;;;21.40;10.80;;;9.90;99.90;;;;;;4988458;28;20124;-75
2023/04/30 03:00:04;;;;;;;21.88;10.80;;;9.90;99.90;;;;;;4987636;28;20018;-73
2023/04/30 03:02:30;;;;;;;20.27;10.80;;;9.90;99.90;;;;;;4976815;28;20042;-74
2023/04/30 03:04:56;;;;;;;25.75;10.73;;;9.80;99.90;;;;;;4989442;28;20041;-75
2023/04/30 03:07:21;;;;;;;23.23;10.38;;;9.80;99.90;;;;;;4988363;28;20034;-75
2023/04/30 03:09:47;;;;;;;20.90;10.27;;;9.80;99.90;;;;;;4986376;28;20470;-74
2023/04/30 03:12:13;;;;;;;21.17;11.30;;;9.80;99.90;;;;;;4988912;28;20097;-75
2023/04/30 03:14:39;;;;;;;19.05;10.15;;;9.80;99.90;;;;;;4989135;28;20025;-75
2023/04/30 03:17:05;;;;;;;22.70;11.20;;;9.80;99.90;;;;;;4986223;28;20479;-74
2023/04/30 03:19:31;;;;;;;22.00;11.10;;;9.80;99.90;;;;;;4988583;28;20031;-74
2023/04/30 03:21:57;;;;;;;26.77;11.10;;;9.80;99.90;;;;;;4989336;28;20122;-75
2023/04/30 03:24:23;;;;;;;22.85;11.40;;;9.80;99.90;;;;;;4988676;28;20030;-74
2023/04/30 03:26:49;;;;;;;21.75;11.07;;;9.80;99.90;;;;;;4987885;28;20037;-75
2023/04/30 03:29:15;;;;;;;22.30;10.63;;;9.70;99.90;;;;;;4989273;28;20034;-74
2023/04/30 03:31:41;;;;;;;19.98;10.98;;;9.70;99.90;;;;;;4987119;28;20038;-74
2023/04/30 03:34:07;;;;;;;21.63;10.05;;;9.70;99.90;;;;;;4987262;28;20434;-74
2023/04/30 03:36:33;;;;;;;21.30;10.45;;;9.70;99.90;;;;;;4986808;28;21413;-75
2023/04/30 03:38:59;;;;;;;24.38;11.13;;;9.70;99.90;;;;;;4989165;28;20057;-76
2023/04/30 03:41:25;;;;;;;19.35;10.00;;;9.60;99.90;;;;;;4987045;28;20034;-75
2023/04/30 03:43:51;;;;;;;24.10;11.10;;;9.50;99.90;;;;;;4989081;28;20372;-73
2023/04/30 03:46:17;;;;;;;22.88;11.48;;;9.50;99.90;;;;;;4970534;28;20468;-76
2023/04/30 03:48:43;;;;;;;23.85;10.75;;;9.50;99.90;;;;;;4985877;28;20387;-74
2023/04/30 03:51:09;;;;;;;22.75;11.25;;;9.50;99.90;;;;;;4982528;28;20031;-74
2023/04/30 03:53:34;;;;;;;22.48;11.10;;;9.50;99.90;;;;;;4987853;28;20101;-74
2023/04/30 03:56:00;;;;;;;23.13;11.65;;;9.50;99.90;;;;;;4985850;28;20100;-74
2023/04/30 03:58:26;;;;;;;23.27;12.10;;;9.60;99.90;;;;;;4970332;28;20042;-74
2023/04/30 04:00:52;;;;;;;26.20;12.65;;;9.50;99.90;;;;;;4988501;28;20080;-74
2023/04/30 04:03:19;;;;;;;24.20;12.05;;;9.50;99.90;;;;;;4999701;28;20062;-78
2023/04/30 04:05:44;;;;;;;26.75;11.50;;;9.40;99.90;;;;;;4986580;28;20045;-75
2023/04/30 04:08:10;;;;;;;23.70;12.07;;;9.40;99.90;;;;;;4988675;28;20058;-75
2023/04/30 04:10:37;;;;;;;24.67;12.45;;;9.40;99.90;;;;;;4985330;28;20034;-75
2023/04/30 04:13:03;;;;;;;23.17;11.73;;;9.40;99.90;;;;;;4987482;28;20435;-73
2023/04/30 04:15:28;;;;;;;23.83;12.75;;;9.50;99.90;;;;;;4987138;28;20081;-74
2023/04/30 04:17:54;;;;;;;24.38;12.27;;;9.50;99.90;;;;;;4988310;28;20041;-73
2023/04/30 04:20:19;;;;;;;26.88;12.25;;;9.50;99.90;;;;;;4986878;28;20036;-75
2023/04/30 04:22:45;;;;;;;25.50;11.60;;;9.50;99.90;;;;;;4985624;28;20575;-75
2023/04/30 04:25:12;;;;;;;24.92;12.25;;;9.50;99.90;;;;;;4987966;28;20039;-75
2023/04/30 04:27:38;;;;;;;27.42;13.75;;;9.60;99.90;;;;;;4985488;28;20031;-76
2023/04/30 04:30:04;;;;;;;24.95;12.55;;;9.50;99.90;;;;;;4986914;28;20486;-75
2023/04/30 04:32:31;;;;;;;23.05;11.80;;;9.50;99.90;;;;;;4984531;28;20089;-76
2023/04/30 04:34:57;;;;;;;26.95;12.95;;;9.50;99.90;;;;;;4988732;28;20495;-73
2023/04/30 04:37:23;;;;;;;27.77;12.18;;;9.50;99.90;;;;;;4986231;28;20371;-76
2023/04/30 04:39:50;;;;;;;24.30;12.43;;;9.50;99.90;;;;;;4987595;28;20034;-75
2023/04/30 04:42:16;;;;;;;23.42;12.57;;;9.50;99.90;;;;;;4983399;28;20472;-75
2023/04/30 04:44:42;;;;;;;27.65;13.20;;;9.50;99.90;;;;;;4985614;28;20022;-76
2023/04/30 04:47:09;;;;;;;31.20;13.00;;;9.50;99.90;;;;;;4985645;28;20093;-75
2023/04/30 04:49:34;;;;;;;25.85;12.50;;;9.60;99.90;;;;;;4984691;28;20057;-75
2023/04/30 04:52:00;;;;;;;22.35;12.07;;;9.60;99.90;;;;;;4985565;28;20463;-74
2023/04/30 04:54:26;;;;;;;22.83;11.80;;;9.70;99.90;;;;;;4987095;28;20481;-73
2023/04/30 04:56:52;;;;;;;26.33;12.57;;;9.70;99.90;;;;;;4988877;28;20027;-74
2023/04/30 04:59:18;;;;;;;25.52;12.95;;;9.70;99.90;;;;;;4987722;28;20030;-75
2023/04/30 05:01:43;;;;;;;28.42;13.23;;;9.70;99.90;;;;;;4984609;28;20033;-75
2023/04/30 05:04:09;;;;;;;28.92;13.57;;;9.80;99.90;;;;;;4981350;28;20046;-75
2023/04/30 05:06:35;;;;;;;24.27;12.98;;;9.80;99.90;;;;;;4989846;28;20062;-76
2023/04/30 05:09:01;;;;;;;25.25;13.07;;;9.80;99.90;;;;;;4989778;28;20081;-74
2023/04/30 05:11:27;;;;;;;26.30;13.45;;;9.80;99.90;;;;;;4985391;28;20038;-76
2023/04/30 05:13:52;;;;;;;26.35;13.15;;;9.90;99.90;;;;;;4985184;28;20035;-74
2023/04/30 05:16:18;;;;;;;28.13;13.27;;;10.00;99.90;;;;;;4990332;28;20030;-74
2023/04/30 05:18:44;;;;;;;26.65;14.18;;;9.90;99.90;;;;;;4982441;28;20490;-74
2023/04/30 05:21:09;;;;;;;29.83;14.23;;;10.00;99.90;;;;;;4990151;28;20027;-75
2023/04/30 05:23:35;;;;;;;26.98;14.50;;;10.00;99.90;;;;;;4989425;28;20037;-74
2023/04/30 05:26:01;;;;;;;27.25;13.55;;;10.00;99.90;;;;;;4972185;28;20045;-75
2023/04/30 05:28:26;;;;;;;26.00;13.50;;;10.00;99.90;;;;;;4983921;28;20459;-77
2023/04/30 05:30:52;;;;;;;27.23;14.35;;;10.00;99.90;;;;;;4984970;28;20054;-75
2023/04/30 05:33:18;;;;;;;24.48;13.15;;;10.00;99.90;;;;;;4986075;28;20055;-75
2023/04/30 05:35:43;;;;;;;28.27;13.38;;;10.00;99.90;;;;;;4982097;28;20058;-74
2023/04/30 05:38:09;;;;;;;27.75;13.98;;;10.10;99.90;;;;;;4981115;28;20039;-75
2023/04/30 05:40:34;;;;;;;24.88;13.25;;;10.20;99.90;;;;;;4988570;28;20033;-75
2023/04/30 05:43:00;;;;;;;32.00;14.65;;;10.10;99.90;;;;;;4988232;28;20391;-75
2023/04/30 05:45:26;;;;;;;30.08;14.20;;;10.20;99.90;;;;;;4984841;28;20446;-78
2023/04/30 05:47:52;;;;;;;24.95;13.27;;;10.30;99.90;;;;;;4988685;28;20027;-75
2023/04/30 05:50:18;;;;;;;28.95;15.43;;;10.30;99.90;;;;;;4980752;28;20029;-74
2023/04/30 05:52:43;;;;;;;26.77;14.20;;;10.20;99.90;;;;;;4988232;28;20065;-73
2023/04/30 05:55:09;;;;;;;30.33;15.02;;;10.20;99.90;;;;;;4971522;28;20573;-74
2023/04/30 05:57:35;;;;;;;28.58;14.88;;;10.20;99.90;;;;;;4989547;28;20026;-76
2023/04/30 06:00:01;;;;;;;29.95;15.25;;;10.20;99.90;;;;;;4988015;28;20395;-75
2023/04/30 06:02:26;;;;;;;31.38;15.02;;;10.20;99.90;;;;;;4984496;28;20038;-77
2023/04/30 06:04:52;;;;;;;30.27;15.45;;;10.20;99.90;;;;;;4981634;28;20468;-75
2023/04/30 06:07:18;;;;;;;28.95;14.90;;;10.30;99.90;;;;;;4988388;28;20344;-73
2023/04/30 06:09:44;;;;;;;27.33;14.45;;;10.40;99.90;;;;;;4984199;28;20142;-75
2023/04/30 06:12:10;;;;;;;28.60;14.75;;;10.50;99.90;;;;;;4986053;28;20039;-74
2023/04/30 06:14:36;;;;;;;27.70;14.60;;;10.50;99.90;;;;;;4988518;28;20041;-73
2023/04/30 06:17:02;;;;;;;28.65;15.65;;;10.60;99.90;;;;;;4987711;28;20137;-73
2023/04/30 06:19:27;;;;;;;30.33;14.65;;;10.60;99.90;;;;;;4989506;28;20037;-76
2023/04/30 06:21:53;;;;;;;31.30;15.10;;;10.60;99.90;;;;;;4986860;28;20391;-73
2023/04/30 06:24:19;;;;;;;29.95;15.00;;;10.70;99.90;;;;;;4986103;28;20121;-74
2023/04/30 06:26:45;;;;;;;26.25;14.20;;;10.70;99.90;;;;;;4988390;28;20153;-75
2023/04/30 06:29:10;;;;;;;28.60;14.55;;;10.90;99.90;;;;;;4989872;28;20026;-75
2023/04/30 06:31:36;;;;;;;33.05;15.32;;;10.80;99.90;;;;;;4986640;28;20042;-75
2023/04/30 06:34:01;;;;;;;31.75;15.60;;;10.80;99.90;;;;;;4989565;28;20061;-74
2023/04/30 06:36:27;;;;;;;28.85;15.50;;;10.90;99.90;;;;;;4991089;28;20074;-79
2023/04/30 06:38:53;;;;;;;33.65;15.23;;;10.90;99.90;;;;;;4988854;28;20057;-73
2023/04/30 06:41:18;;;;;;;34.55;15.70;;;11.10;99.90;;;;;;4987608;28;20673;-74
2023/04/30 06:43:44;;;;;;;28.98;15.20;;;11.20;99.90;;;;;;4985243;28;20038;-73
2023/04/30 06:46:10;;;;;;;31.27;16.67;;;11.20;99.90;;;;;;4981550;28;20025;-75
2023/04/30 06:48:36;;;;;;;31.55;15.20;;;11.40;99.90;;;;;;4983868;28;20125;-73
2023/04/30 06:51:01;;;;;;;27.63;14.40;;;11.70;99.90;;;;;;4983983;28;20093;-73
2023/04/30 06:53:27;;;;;;;28.92;14.80;;;11.80;99.90;;;;;;4984813;28;20030;-75
2023/04/30 06:55:53;;;;;;;28.30;14.38;;;11.80;99.90;;;;;;4978857;28;20023;-73
2023/04/30 06:58:19;;;;;;;29.17;14.07;;;11.90;99.90;;;;;;4988955;28;20052;-72
2023/04/30 07:00:44;;;;;;;26.10;14.30;;;11.90;99.90;;;;;;4987202;28;20038;-74
2023/04/30 07:03:10;;;;;;;27.48;13.85;;;12.00;99.90;;;;;;4985747;28;20031;-73
2023/04/30 07:05:36;;;;;;;24.67;13.63;;;12.20;99.90;;;;;;4986567;28;20670;-74
2023/04/30 07:08:05;;;;;;;27.55;14.32;;;12.20;99.90;;;;;;4984940;28;20065;-75
2023/04/30 07:10:31;;;;;;;31.90;14.90;;;12.10;99.90;;;;;;4983716;28;20035;-76
2023/04/30 07:12:58;;;;;;;27.73;14.05;;;12.00;99.90;;;;;;4987393;28;20038;-74
2023/04/30 07:15:23;;;;;;;27.58;13.98;;;12.00;99.90;;;;;;4979338;28;20667;-74
2023/04/30 07:17:49;;;;;;;27.90;15.02;;;12.20;99.90;;;;;;4985020;28;20026;-74
2023/04/30 07:20:15;;;;;;;26.75;13.93;;;12.40;99.90;;;;;;4984753;28;20066;-74
2023/04/30 07:22:45;;;;;;;29.52;14.57;;;12.40;99.90;;;;;;4980754;28;20053;-74
2023/04/30 07:25:14;;;;;;;25.98;13.73;;;12.50;99.90;;;;;;4986217;28;20022;-73
2023/04/30 07:27:40;;;;;;;24.55;13.05;;;12.60;99.90;;;;;;4978487;28;20494;-74
2023/04/30 07:30:10;;;;;;;26.30;13.10;;;12.70;99.90;;;;;;4980851;28;20062;-75
2023/04/30 07:32:37;;;;;;;31.15;14.02;;;13.00;99.90;;;;;;4982139;28;20506;-74
2023/04/30 07:35:03;;;;;;;23.90;12.25;;;13.20;99.90;;;;;;4978387;28;20046;-74
2023/04/30 07:37:29;;;;;;;26.00;13.77;;;13.30;99.90;;;;;;4984317;28;20064;-74
2023/04/30 07:39:55;;;;;;;22.83;12.63;;;13.40;99.90;;;;;;4984240;28;20487;-74
2023/04/30 07:42:21;;;;;;;25.50;13.35;;;13.40;99.90;;;;;;4970099;28;20442;-74
2023/04/30 07:44:47;;;;;;;20.40;12.35;;;13.60;99.90;;;;;;4986097;28;20034;-74
2023/04/30 07:47:13;;;;;;;24.33;11.57;;;13.40;99.90;;;;;;4968215;28;20690;-74
2023/04/30 07:49:39;;;;;;;26.08;12.57;;;13.40;99.90;;;;;;4984085;28;20039;-73
2023/04/30 07:52:07;;;;;;;22.60;11.68;;;13.70;99.90;;;;;;4982807;28;20034;-75
2023/04/30 07:54:35;;;;;;;22.23;11.80;;;13.90;99.90;;;;;;4983150;28;20072;-76
2023/04/30 07:57:02;;;;;;;23.27;11.48;;;14.00;99.90;;;;;;4982111;28;20034;-73
2023/04/30 07:59:27;;;;;;;21.70;11.55;;;14.10;99.90;;;;;;4984417;28;20114;-74
2023/04/30 08:01:53;;;;;;;21.65;11.35;;;14.20;99.90;;;;;;4982744;28;20126;-73
2023/04/30 08:04:19;;;;;;;20.13;10.77;;;14.20;99.90;;;;;;4987326;28;20101;-72
2023/04/30 08:06:44;;;;;;;21.33;11.00;;;14.20;99.90;;;;;;4984206;28;20026;-75
2023/04/30 08:09:12;;;;;;;18.20;10.77;;;14.10;99.90;;;;;;4985903;28;20077;-73
2023/04/30 08:11:38;;;;;;;17.25;10.25;;;14.10;99.90;;;;;;4987263;28;20048;-72
2023/04/30 08:14:05;;;;;;;16.98;10.45;;;14.10;99.90;;;;;;4985772;28;20514;-72
2023/04/30 08:16:31;;;;;;;21.25;9.90;;;14.10;99.90;;;;;;4986704;28;20037;-74
2023/04/30 08:18:58;;;;;;;17.35;9.52;;;14.20;99.90;;;;;;4985072;28;20030;-75
2023/04/30 08:21:24;;;;;;;15.07;8.63;;;14.30;99.90;;;;;;4986245;28;20022;-71
2023/04/30 08:23:49;;;;;;;14.52;7.40;;;14.40;99.90;;;;;;4986997;28;20574;-72
2023/04/30 08:26:15;;;;;;;16.15;8.55;;;14.50;99.90;;;;;;4986193;28;20034;-72
2023/04/30 08:28:41;;;;;;;14.60;7.00;;;14.40;99.90;;;;;;4984418;28;20030;-73
2023/04/30 08:31:07;;;;;;;12.65;6.03;;;14.50;99.90;;;;;;4982478;28;20093;-74
2023/04/30 08:33:32;;;;;;;13.25;6.40;;;14.60;99.90;;;;;;4986926;28;20034;-72
2023/04/30 08:35:58;;;;;;;12.75;7.00;;;14.70;99.90;;;;;;4984301;28;20050;-72
2023/04/30 08:38:24;;;;;;;12.77;7.97;;;14.80;99.90;;;;;;4966565;28;20050;-73
2023/04/30 08:41:10;;;;;;;13.10;6.25;;;15.20;99.90;;;;;;4989756;28;20110;-72
2023/04/30 08:43:36;;;;;;;10.40;6.43;;;15.10;99.90;;;;;;4980802;28;20089;-75
2023/04/30 08:46:02;;;;;;;10.65;6.43;;;14.50;99.90;;;;;;4982740;28;20084;-72
2023/04/30 08:48:29;;;;;;;12.57;7.47;;;14.30;99.90;;;;;;4991111;28;20027;-73
2023/04/30 08:50:55;;;;;;;12.55;6.80;;;14.20;99.90;;;;;;4972723;28;20084;-74
2023/04/30 08:53:21;;;;;;;12.48;6.63;;;14.20;99.90;;;;;;4983557;28;20031;-72
2023/04/30 08:55:47;;;;;;;14.00;6.40;;;14.40;99.90;;;;;;4982284;28;20039;-72
2023/04/30 08:58:12;;;;;;;12.30;6.75;;;14.60;99.90;;;;;;4991328;28;20130;-72
2023/04/30 09:00:39;;;;;;;15.23;8.13;;;14.50;99.90;;;;;;4990203;28;20030;-75
2023/04/30 09:03:06;;;;;;;15.20;7.75;;;14.40;99.90;;;;;;4990141;28;20066;-72
2023/04/30 09:05:32;;;;;;;14.65;7.93;;;14.20;99.90;;;;;;4991013;28;20080;-72
2023/04/30 09:07:58;;;;;;;11.45;7.40;;;14.20;99.90;;;;;;4990005;28;20105;-73
2023/04/30 09:10:23;;;;;;;13.10;6.80;;;14.50;99.90;;;;;;4983728;28;20065;-71
2023/04/30 09:13:06;;;;;;;12.40;6.10;;;14.70;99.90;;;;;;4986832;28;20058;-71
2023/04/30 09:15:33;;;;;;;11.15;5.65;;;14.60;99.90;;;;;;4980287;28;20041;-71
2023/04/30 09:18:15;;;;;;;11.48;6.57;;;14.50;99.90;;;;;;4987198;28;20468;-71
2023/04/30 09:20:55;;;;;;;8.65;5.40;;;14.40;99.90;;;;;;4979178;28;20065;-71
2023/04/30 09:23:21;;;;;;;10.50;4.82;;;14.30;99.90;;;;;;4989229;28;20050;-73
2023/04/30 09:25:47;;;;;;;8.95;4.65;;;14.30;99.90;;;;;;4990198;28;20038;-73
2023/04/30 09:28:13;;;;;;;7.03;4.28;;;14.30;99.90;;;;;;4990975;28;20110;-73
2023/04/30 09:30:40;;;;;;;7.70;4.22;;;14.30;99.90;;;;;;5002335;28;20562;-75
2023/04/30 09:33:06;;;;;;;9.07;4.63;;;14.40;99.90;;;;;;4987780;28;20034;-73
2023/04/30 09:35:45;;;;;;;8.80;4.32;;;14.60;99.90;;;;;;4990645;28;20398;-71
2023/04/30 09:38:28;;;;;;;9.20;4.60;;;14.60;99.90;;;;;;4991043;28;20096;-72
2023/04/30 09:40:56;;;;;;;7.03;4.10;;;14.60;99.90;;;;;;4982225;28;20050;-72
2023/04/30 09:43:22;;;;;;;9.23;4.90;;;14.60;99.90;;;;;;4990567;28;20479;-72
2023/04/30 09:45:51;;;;;;;8.52;4.68;;;14.50;99.90;;;;;;4989618;28;20026;-72
2023/04/30 09:48:30;;;;;;;9.13;4.47;;;14.40;99.90;;;;;;4989782;28;20061;-73
2023/04/30 09:50:56;;;;;;;10.15;4.63;;;14.30;99.90;;;;;;4989176;28;20597;-71
2023/04/30 09:53:22;;;;;;;8.32;4.68;;;14.40;99.90;;;;;;4989859;28;20046;-71
2023/04/30 09:55:50;;;;;;;8.70;5.03;;;14.60;99.90;;;;;;4989238;28;20113;-72
2023/04/30 09:58:18;;;;;;;14.75;6.50;;;14.60;99.90;;;;;;4990410;28;20026;-72
2023/04/30 10:00:45;;;;;;;12.70;6.10;;;14.60;99.90;;;;;;4989362;28;20042;-72
2023/04/30 10:03:15;;;;;;;8.27;5.45;;;14.50;99.90;;;;;;4990260;28;20120;-71
2023/04/30 10:05:46;;;;;;;8.52;5.63;;;14.60;99.90;;;;;;4989535;28;20023;-75
2023/04/30 10:08:26;;;;;;;11.90;5.30;;;14.70;99.90;;;;;;4988092;28;20423;-72
2023/04/30 10:11:02;;;;;;;10.52;6.43;;;14.90;99.90;;;;;;4985857;28;20037;-71
2023/04/30 10:13:48;;;;;;;8.02;5.28;;;15.00;99.90;;;;;;4985558;28;20475;-72
2023/04/30 10:16:40;;;;;;;8.85;6.05;;;15.10;99.90;;;;;;4982713;28;20041;-72
2023/04/30 10:19:17;;;;;;;9.38;5.47;;;15.10;99.90;;;;;;4979210;28;20047;-71
2023/04/30 10:21:46;;;;;;;9.63;5.20;;;14.90;99.90;;;;;;4988787;28;20022;-74
2023/04/30 10:24:18;;;;;;;14.70;5.93;;;15.00;99.90;;;;;;4985602;28;20755;-71
2023/04/30 10:26:45;;;;;;;12.00;5.80;;;15.00;99.90;;;;;;4986320;28;20478;-74
2023/04/30 10:29:13;;;;;;;10.30;6.13;;;15.00;99.90;;;;;;4990215;28;20029;-72
2023/04/30 10:31:41;;;;;;;15.15;5.57;;;14.80;99.90;;;;;;4982696;28;20062;-72
2023/04/30 10:34:14;;;;;;;14.43;5.32;;;14.60;99.90;;;;;;4995574;28;20512;-72
2023/04/30 10:36:44;;;;;;;12.95;5.72;;;14.70;99.90;;;;;;4989965;28;20490;-72
2023/04/30 10:39:11;;;;;;;15.15;6.82;;;14.50;99.90;;;;;;4988111;28;20057;-71
2023/04/30 10:41:38;;;;;;;14.68;6.65;;;14.30;99.90;;;;;;4989785;28;20034;-72
2023/04/30 10:44:06;;;;;;;12.40;6.65;;;14.10;99.90;;;;;;4988761;28;20084;-71
2023/04/30 10:46:34;;;;;;;11.63;6.50;;;14.20;99.90;;;;;;4981843;28;20102;-72
2023/04/30 10:49:00;;;;;;;12.65;7.40;;;14.20;99.90;;;;;;4988889;28;20382;-72
2023/04/30 10:51:45;;;;;;;15.88;7.07;;;14.20;99.90;;;;;;4972275;28;20030;-72
2023/04/30 10:54:12;;;;;;;13.70;7.07;;;14.40;99.90;;;;;;4981008;28;20030;-71
2023/04/30 10:56:38;;;;;;;11.15;6.40;;;14.50;99.90;;;;;;4989102;28;20034;-72
2023/04/30 10:59:04;;;;;;;10.55;6.35;;;14.60;99.90;;;;;;4985064;28;20027;-71
2023/04/30 11:01:30;;;;;;;12.95;6.22;;;14.60;99.90;;;;;;4984376;28;20050;-72
2023/04/30 11:04:09;;;;;;;11.45;6.03;;;14.80;99.90;;;;;;4984683;28;20098;-72
2023/04/30 11:07:09;;;;;;;11.32;6.60;;;15.10;99.90;;;;;;4982296;28;20033;-71
2023/04/30 11:09:37;;;;;;;13.63;6.35;;;15.20;99.90;;;;;;4989584;28;20050;-72
2023/04/30 11:12:08;;;;;;;8.80;5.75;;;15.30;99.90;;;;;;4986823;28;20166;-72
2023/04/30 11:14:38;;;;;;;10.50;5.65;;;15.10;99.90;;;;;;4980834;28;20069;-70
2023/04/30 11:17:04;;;;;;;13.57;6.47;;;15.00;99.90;;;;;;4988107;28;20117;-72
2023/04/30 11:19:33;;;;;;;9.35;6.05;;;15.00;99.90;;;;;;4988791;28;20449;-71
2023/04/30 11:22:05;;;;;;;10.88;5.90;;;15.00;99.90;;;;;;4987542;28;20038;-72
2023/04/30 11:24:52;;;;;;;10.18;5.80;;;15.10;99.90;;;;;;4988985;28;20128;-71
2023/04/30 11:27:23;;;;;;;8.90;5.57;;;15.10;99.90;;;;;;4988478;28;20073;-72
2023/04/30 11:29:51;;;;;;;10.30;5.35;;;15.30;99.90;;;;;;4988244;28;20026;-71
2023/04/30 11:32:18;;;;;;;10.45;5.68;;;15.30;99.90;;;;;;4988774;28;20030;-71
2023/04/30 11:34:44;;;;;;;10.63;5.22;;;15.20;99.90;;;;;;4988476;28;20042;-73
2023/04/30 11:37:15;;;;;;;8.27;4.88;;;15.10;99.90;;;;;;4986460;28;20030;-71
2023/04/30 11:39:41;;;;;;;;;;;15.10;99.90;;;;;;4978230;28;20150;-72
2023/04/30 11:42:07;;;;;;;8.07;4.68;;;15.20;99.90;;;;;;4983878;28;20141;-71
2023/04/30 11:44:33;;;;;;;10.63;5.10;;;15.20;99.90;;;;;;4983335;28;20042;-72
2023/04/30 11:46:59;;;;;;;8.40;5.05;;;15.40;99.90;;;;;;4982600;28;20038;-72
2023/04/30 11:49:26;;;;;;;9.57;4.95;;;15.50;99.90;;;;;;4970420;28;20168;-72
2023/04/30 11:51:52;;;;;;;8.75;5.13;;;15.50;99.90;;;;;;4986948;28;20804;-71
2023/04/30 11:54:18;;;;;;;8.75;5.22;;;15.50;99.90;;;;;;4987961;28;20070;-70
2023/04/30 11:56:47;;;;;;;7.60;4.85;;;15.60;99.90;;;;;;4988507;28;20031;-71
2023/04/30 11:59:14;;;;;;;9.65;4.65;;;15.70;99.90;;;;;;4983785;28;20383;-71
2023/04/30 12:01:40;;;;;;;6.55;4.63;;;15.80;99.90;;;;;;4986390;28;20122;-72
2023/04/30 12:04:09;;;;;;;10.18;5.85;;;15.80;99.90;;;;;;4987899;28;20034;-71
2023/04/30 12:06:35;;;;;;;9.40;5.40;;;15.60;99.90;;;;;;4968678;28;20034;-71
2023/04/30 12:09:07;;;;;;;10.13;5.30;;;15.50;99.90;;;;;;4981682;28;20407;-71
2023/04/30 12:11:34;;;;;;;11.63;5.03;;;15.40;99.90;;;;;;4970748;28;20034;-72
2023/04/30 12:14:09;;;;;;;9.23;4.85;;;15.50;99.90;;;;;;4967230;28;20051;-71
2023/04/30 12:16:53;;;;;;;7.47;4.68;;;15.50;99.90;;;;;;4983887;28;20030;-72
2023/04/30 12:19:26;;;;;;;8.68;4.97;;;15.50;99.90;;;;;;4988577;28;20125;-72
2023/04/30 12:21:53;;;;;;;11.85;4.70;;;15.60;99.90;;;;;;4978958;28;20034;-72
2023/04/30 12:24:19;;;;;;;6.63;4.15;;;15.70;99.90;;;;;;4985829;28;20038;-72
2023/04/30 12:26:46;;;;;;;10.98;4.80;;;15.90;99.90;;;;;;5003966;28;20045;-72
2023/04/30 12:29:16;;;;;;;6.70;4.25;;;16.00;99.90;;;;;;4978252;28;20030;-72
2023/04/30 12:31:42;;;;;;;7.05;4.53;;;16.10;99.90;;;;;;4971104;28;20540;-72
2023/04/30 12:34:10;;;;;;;9.45;4.95;;;16.10;99.90;;;;;;4990281;28;20038;-72
2023/04/30 12:36:38;;;;;;;8.25;4.75;;;15.90;99.90;;;;;;4991078;28;20023;-71
2023/04/30 12:39:10;;;;;;;8.50;5.07;;;15.90;99.90;;;;;;4990704;28;20031;-72